createdAt,value
2022-11-14T00:00:49.006Z,14.90
2022-11-14T00:03:35.149Z,16.03
2022-11-14T00:06:20.946Z,15.30
2022-11-14T00:09:06.783Z,15.40
2022-11-14T00:11:53.232Z,15.33
2022-11-14T00:14:39.321Z,15.33
2022-11-14T00:17:24.497Z,15.57
2022-11-14T00:20:12.587Z,15.57
2022-11-14T00:22:58.795Z,16.13
2022-11-14T00:25:45.613Z,16.20
2022-11-14T00:28:31.413Z,17.73
2022-11-14T00:31:17.862Z,17.23
2022-11-14T00:34:03.102Z,16.17
2022-11-14T00:36:48.830Z,16.47
2022-11-14T00:39:34.081Z,17.17
2022-11-14T00:42:20.380Z,19.07
2022-11-14T00:45:06.575Z,18.10
2022-11-14T00:47:54.927Z,17.37
2022-11-14T00:50:40.938Z,18.07
2022-11-14T00:53:26.975Z,19.47
2022-11-14T00:56:12.579Z,18.00
2022-11-14T00:58:58.795Z,19.33
2022-11-14T01:01:44.319Z,18.70
2022-11-14T01:04:30.075Z,19.30
2022-11-14T01:07:15.314Z,19.97
2022-11-14T01:10:01.271Z,18.03
2022-11-14T01:12:47.732Z,21.50
2022-11-14T01:15:33.769Z,20.30
2022-11-14T01:18:21.008Z,20.60
2022-11-14T01:21:09.894Z,20.50
2022-11-14T01:23:55.481Z,23.03
2022-11-14T01:26:42.633Z,22.40
2022-11-14T01:29:28.248Z,20.63
2022-11-14T01:32:13.806Z,21.40
2022-11-14T01:34:59.655Z,22.80
2022-11-14T01:37:45.917Z,23.10
2022-11-14T01:40:32.633Z,23.87
2022-11-14T01:43:18.484Z,23.87
2022-11-14T01:46:14.353Z,23.70
2022-11-14T01:49:11.593Z,23.13
2022-11-14T01:52:04.829Z,24.27
2022-11-14T01:54:55.818Z,24.50
2022-11-14T01:57:46.191Z,24.43
2022-11-14T02:00:31.985Z,24.47
2022-11-14T02:03:17.794Z,22.73
2022-11-14T02:06:06.469Z,24.90
2022-11-14T02:08:53.196Z,24.37
2022-11-14T02:11:42.303Z,23.37
2022-11-14T02:14:30.301Z,22.10
2022-11-14T02:17:32.947Z,23.47
2022-11-14T02:20:19.638Z,22.57
2022-11-14T02:23:05.502Z,21.73
2022-11-14T02:25:51.406Z,20.73
2022-11-14T02:28:37.174Z,21.60
2022-11-14T02:31:22.724Z,21.43
2022-11-14T02:34:08.495Z,22.07
2022-11-14T02:36:54.307Z,21.83
2022-11-14T02:39:40.890Z,20.87
2022-11-14T02:42:26.648Z,20.47
2022-11-14T02:45:13.420Z,18.90
2022-11-14T02:47:59.331Z,19.23
2022-11-14T02:50:48.087Z,20.70
2022-11-14T02:53:33.478Z,21.83
2022-11-14T02:56:19.543Z,19.73
2022-11-14T02:59:05.047Z,19.83
2022-11-14T03:01:51.117Z,20.43
2022-11-14T03:04:36.635Z,19.63
2022-11-14T03:07:23.087Z,19.67
2022-11-14T03:10:09.720Z,22.10
2022-11-14T03:12:56.254Z,22.23
2022-11-14T03:15:41.499Z,24.17
2022-11-14T03:18:27.700Z,22.87
2022-11-14T03:21:19.394Z,24.70
2022-11-14T03:24:05.640Z,23.60
2022-11-14T03:26:51.288Z,25.57
2022-11-14T03:29:38.233Z,24.00
2022-11-14T03:32:23.679Z,25.03
2022-11-14T03:35:10.288Z,25.93
2022-11-14T03:37:56.728Z,25.30
2022-11-14T03:40:43.065Z,23.17
2022-11-14T03:43:33.850Z,24.00
2022-11-14T03:46:19.415Z,24.40
2022-11-14T03:49:04.934Z,25.07
2022-11-14T03:51:50.921Z,23.90
2022-11-14T03:54:36.786Z,25.27
2022-11-14T03:57:22.909Z,24.20
2022-11-14T04:00:09.694Z,22.37
2022-11-14T04:02:57.152Z,22.73
2022-11-14T04:05:45.987Z,24.07
2022-11-14T04:08:32.880Z,23.80
2022-11-14T04:11:19.231Z,24.07
2022-11-14T04:14:05.929Z,22.73
2022-11-14T04:16:51.815Z,23.23
2022-11-14T04:19:37.889Z,21.70
2022-11-14T04:22:23.590Z,23.10
2022-11-14T04:25:09.919Z,22.33
2022-11-14T04:27:57.342Z,22.90
2022-11-14T04:30:45.184Z,22.63
2022-11-14T04:33:30.779Z,24.53
2022-11-14T04:36:16.351Z,21.90
2022-11-14T04:39:02.175Z,24.33
2022-11-14T04:41:48.035Z,23.80
2022-11-14T04:44:33.516Z,22.10
2022-11-14T04:47:20.553Z,24.10
2022-11-14T04:50:07.047Z,23.67
2022-11-14T04:52:53.784Z,24.27
2022-11-14T04:55:39.203Z,25.13
2022-11-14T04:58:24.713Z,26.60
2022-11-14T05:01:10.744Z,26.07
2022-11-14T05:03:56.667Z,26.60
2022-11-14T05:07:06.842Z,27.37
2022-11-14T05:09:52.557Z,28.33
2022-11-14T05:12:38.379Z,27.97
2022-11-14T05:15:24.948Z,28.33
2022-11-14T05:18:10.229Z,29.23
2022-11-14T05:20:59.119Z,29.67
2022-11-14T05:23:44.702Z,30.70
2022-11-14T05:26:30.365Z,29.53
2022-11-14T05:29:15.982Z,29.87
2022-11-14T05:32:02.123Z,28.80
2022-11-14T05:34:47.859Z,30.03
2022-11-14T05:37:34.973Z,29.67
2022-11-14T05:40:20.247Z,28.50
2022-11-14T05:43:07.038Z,27.87
2022-11-14T05:45:52.676Z,27.80
2022-11-14T05:48:39.211Z,30.07
2022-11-14T05:51:25.075Z,30.70
2022-11-14T05:54:10.696Z,29.83
2022-11-14T05:56:56.143Z,30.50
2022-11-14T05:59:42.031Z,31.37
2022-11-14T06:02:27.475Z,30.37
2022-11-14T06:05:13.079Z,29.00
2022-11-14T06:07:59.279Z,31.63
2022-11-14T06:10:45.552Z,30.33
2022-11-14T06:13:32.109Z,31.60
2022-11-14T06:16:19.721Z,33.13
2022-11-14T06:19:05.513Z,33.27
2022-11-14T06:21:51.540Z,31.10
2022-11-14T06:24:37.214Z,31.10
2022-11-14T06:27:22.700Z,31.83
2022-11-14T06:30:09.062Z,31.77
2022-11-14T06:33:01.461Z,31.40
2022-11-14T06:35:46.688Z,31.53
2022-11-14T06:38:34.403Z,32.23
2022-11-14T06:41:22.268Z,29.30
2022-11-14T06:44:08.884Z,31.20
2022-11-14T06:46:54.568Z,30.47
2022-11-14T06:49:40.810Z,31.17
2022-11-14T06:52:27.276Z,33.53
2022-11-14T06:55:13.096Z,32.03
2022-11-14T06:57:58.792Z,29.93
2022-11-14T07:00:44.328Z,31.13
2022-11-14T07:03:29.961Z,33.47
2022-11-14T07:06:18.606Z,31.43
2022-11-14T07:09:04.447Z,30.83
2022-11-14T07:11:50.608Z,31.70
2022-11-14T07:14:36.441Z,30.77
2022-11-14T07:17:23.413Z,31.33
2022-11-14T07:20:10.875Z,29.87
2022-11-14T07:22:56.699Z,31.13
2022-11-14T07:25:42.301Z,29.87
2022-11-14T07:28:29.168Z,31.43
2022-11-14T07:31:17.613Z,31.07
2022-11-14T07:34:03.683Z,30.00
2022-11-14T07:36:50.721Z,33.97
2022-11-14T07:39:36.403Z,32.63
2022-11-14T07:42:21.857Z,32.83
2022-11-14T07:45:09.161Z,32.27
2022-11-14T07:47:59.308Z,34.10
2022-11-14T07:50:47.300Z,33.60
2022-11-14T07:53:34.088Z,34.90
2022-11-14T07:56:20.698Z,35.60
2022-11-14T07:59:06.574Z,36.97
2022-11-14T08:01:52.546Z,34.87
2022-11-14T08:04:38.382Z,34.97
2022-11-14T08:07:24.335Z,34.83
2022-11-14T08:10:11.778Z,36.37
2022-11-14T08:13:31.785Z,36.03
2022-11-14T08:16:13.233Z,36.63
2022-11-14T08:19:01.146Z,36.80
2022-11-14T08:21:47.139Z,36.23
2022-11-14T08:24:33.517Z,37.20
2022-11-14T08:27:19.463Z,37.93
2022-11-14T08:30:05.639Z,40.17
2022-11-14T08:32:51.662Z,37.40
2022-11-14T08:35:37.649Z,38.60
2022-11-14T08:38:23.273Z,38.87
2022-11-14T08:41:10.108Z,37.00
2022-11-14T08:43:55.727Z,36.20
2022-11-14T08:46:41.957Z,37.27
2022-11-14T08:49:27.662Z,37.67
2022-11-14T08:52:16.698Z,39.03
2022-11-14T08:55:02.807Z,38.40
2022-11-14T08:57:49.934Z,38.30
2022-11-14T09:00:35.893Z,37.30
2022-11-14T09:03:22.383Z,35.63
2022-11-14T09:06:08.280Z,37.90
2022-11-14T09:08:54.947Z,32.00
2022-11-14T09:11:40.786Z,32.43
2022-11-14T09:14:27.986Z,31.27
2022-11-14T09:17:14.083Z,31.50
2022-11-14T09:20:00.221Z,31.00
2022-11-14T09:22:46.773Z,32.60
2022-11-14T09:25:32.988Z,34.10
2022-11-14T09:28:18.978Z,36.17
2022-11-14T09:31:07.722Z,39.53
2022-11-14T09:33:53.587Z,80.17
2022-11-14T09:36:39.696Z,40.70
2022-11-14T09:39:25.776Z,47.10
2022-11-14T09:42:18.015Z,46.57
2022-11-14T09:45:13.126Z,37.97
2022-11-14T09:48:10.704Z,41.53
2022-11-14T09:51:22.907Z,36.90
2022-11-14T09:54:24.925Z,42.07
2022-11-14T09:57:19.618Z,35.33
2022-11-14T10:00:23.941Z,36.17
2022-11-14T10:03:18.404Z,37.20
2022-11-14T10:06:22.812Z,39.07
2022-11-14T10:09:30.822Z,35.63
2022-11-14T10:12:34.399Z,35.10
2022-11-14T10:15:33.698Z,37.70
2022-11-14T10:18:40.056Z,35.63
2022-11-14T10:22:05.160Z,36.03
2022-11-14T10:25:07.598Z,33.90
2022-11-14T10:28:05.659Z,34.67
2022-11-14T10:31:23.079Z,33.30
2022-11-14T10:34:32.815Z,36.40
2022-11-14T10:37:25.225Z,35.13
2022-11-14T10:40:18.505Z,35.47
2022-11-14T10:43:18.347Z,33.73
2022-11-14T10:46:21.628Z,35.77
2022-11-14T10:49:21.525Z,32.60
2022-11-14T10:52:14.921Z,31.90
2022-11-14T10:55:07.751Z,32.47
2022-11-14T10:57:53.609Z,32.07
2022-11-14T11:00:39.824Z,32.83
2022-11-14T11:03:45.846Z,27.83
2022-11-14T11:06:31.805Z,28.47
2022-11-14T11:09:45.396Z,29.53
2022-11-14T11:12:37.847Z,29.23
2022-11-14T11:15:26.642Z,33.83
2022-11-14T11:18:34.733Z,34.47
2022-11-14T11:21:23.772Z,33.87
2022-11-14T11:24:10.130Z,43.07
2022-11-14T11:27:28.926Z,31.53
2022-11-14T11:30:25.935Z,34.57
2022-11-14T11:33:24.688Z,32.37
2022-11-14T11:36:22.652Z,33.90
2022-11-14T11:39:22.652Z,36.13
2022-11-14T11:42:17.156Z,34.97
2022-11-14T11:45:09.582Z,37.57
2022-11-14T11:48:13.962Z,36.57
2022-11-14T11:51:03.007Z,36.17
2022-11-14T11:54:43.922Z,35.20
2022-11-14T11:57:38.729Z,36.70
2022-11-14T12:00:25.003Z,35.67
2022-11-14T12:03:20.984Z,37.70
2022-11-14T12:06:29.914Z,38.73
2022-11-14T12:10:03.594Z,38.07
2022-11-14T12:12:45.945Z,35.03
2022-11-14T12:15:50.348Z,34.90
2022-11-14T12:18:45.472Z,33.37
2022-11-14T12:22:01.181Z,34.90
2022-11-14T12:25:05.740Z,36.97
2022-11-14T12:28:25.106Z,36.37
2022-11-14T12:31:15.442Z,36.73
2022-11-14T12:34:06.890Z,38.87
2022-11-14T12:36:53.473Z,41.27
2022-11-14T12:39:39.581Z,43.40
2022-11-14T12:42:26.004Z,43.37
2022-11-14T12:45:36.822Z,42.90
2022-11-14T12:48:31.359Z,39.87
2022-11-14T12:51:26.159Z,38.97
2022-11-14T12:54:51.453Z,40.10
2022-11-14T12:58:03.614Z,39.80
2022-11-14T13:00:49.426Z,39.77
2022-11-14T13:04:07.507Z,42.37
2022-11-14T13:07:32.933Z,43.53
2022-11-14T13:10:30.409Z,43.30
2022-11-14T13:13:36.540Z,43.23
2022-11-14T13:16:48.808Z,44.47
2022-11-14T13:19:53.638Z,44.13
2022-11-14T13:22:41.677Z,42.03
2022-11-14T13:25:28.188Z,44.57
2022-11-14T13:28:38.533Z,43.70
2022-11-14T13:31:42.686Z,45.70
2022-11-14T13:34:51.216Z,44.80
2022-11-14T13:37:52.440Z,44.90
2022-11-14T13:40:47.233Z,44.50
2022-11-14T13:43:45.412Z,44.47
2022-11-14T13:47:00.098Z,43.07
2022-11-14T13:49:56.631Z,42.03
2022-11-14T13:52:45.656Z,42.47
2022-11-14T13:56:16.122Z,42.90
2022-11-14T13:59:37.040Z,42.27
2022-11-14T14:02:22.495Z,43.23
2022-11-14T14:05:33.117Z,43.57
2022-11-14T14:08:42.244Z,43.53
2022-11-14T14:11:56.741Z,44.57
2022-11-14T14:15:00.744Z,44.17
2022-11-14T14:18:04.234Z,46.70
2022-11-14T14:20:52.828Z,42.70
2022-11-14T14:24:03.163Z,44.23
2022-11-14T14:27:23.318Z,43.67
2022-11-14T14:30:10.604Z,42.97
2022-11-14T14:33:08.270Z,43.77
2022-11-14T14:35:54.721Z,43.20
2022-11-14T14:38:40.456Z,42.10
2022-11-14T14:41:31.161Z,41.60
2022-11-14T14:44:34.094Z,46.47
2022-11-14T14:47:32.591Z,43.47
2022-11-14T14:50:27.106Z,39.10
2022-11-14T14:53:23.299Z,40.67
2022-11-14T14:56:27.981Z,42.07
2022-11-14T14:59:23.837Z,42.13
2022-11-14T15:02:16.288Z,42.00
2022-11-14T15:05:03.384Z,43.30
2022-11-14T15:07:51.929Z,44.00
2022-11-14T15:10:37.911Z,44.73
2022-11-14T15:13:25.418Z,41.30
2022-11-14T15:16:11.733Z,40.77
2022-11-14T15:18:58.816Z,41.60
2022-11-14T15:21:44.856Z,41.80
2022-11-14T15:24:31.392Z,45.23
2022-11-14T15:27:19.600Z,45.43
2022-11-14T15:30:19.247Z,43.77
2022-11-14T15:33:24.996Z,41.87
2022-11-14T15:36:17.906Z,43.33
2022-11-14T15:39:21.751Z,41.63
2022-11-14T15:42:19.232Z,45.27
2022-11-14T15:45:23.818Z,44.33
2022-11-14T15:48:16.855Z,42.63
2022-11-14T15:51:01.983Z,43.10
2022-11-14T15:53:49.801Z,42.70
2022-11-14T15:56:35.623Z,44.37
2022-11-14T15:59:21.223Z,42.00
2022-11-14T16:02:28.346Z,52.03
2022-11-14T16:05:15.710Z,42.17
2022-11-14T16:08:01.116Z,43.43
2022-11-14T16:10:46.536Z,49.70
2022-11-14T16:13:32.184Z,42.97
2022-11-14T16:16:18.335Z,43.97
2022-11-14T16:19:04.329Z,45.53
2022-11-14T16:21:49.967Z,45.83
2022-11-14T16:24:35.468Z,45.07
2022-11-14T16:27:20.934Z,48.57
2022-11-14T16:30:07.204Z,46.37
2022-11-14T16:32:53.368Z,47.00
2022-11-14T16:35:38.930Z,46.47
2022-11-14T16:38:25.049Z,46.73
2022-11-14T16:41:14.403Z,44.57
2022-11-14T16:44:00.559Z,46.57
2022-11-14T16:46:46.309Z,46.13
2022-11-14T16:49:31.785Z,49.17
2022-11-14T16:52:17.351Z,47.50
2022-11-14T16:55:02.921Z,44.50
2022-11-14T16:57:49.397Z,46.70
2022-11-14T17:00:35.897Z,50.47
2022-11-14T17:03:21.712Z,48.83
2022-11-14T17:06:10.295Z,48.20
2022-11-14T17:08:57.073Z,47.70
2022-11-14T17:11:44.700Z,47.53
2022-11-14T17:14:30.822Z,48.33
2022-11-14T17:17:16.461Z,47.57
2022-11-14T17:20:02.068Z,47.47
2022-11-14T17:22:48.191Z,47.47
2022-11-14T17:25:33.594Z,46.40
2022-11-14T17:28:19.314Z,46.97
2022-11-14T17:31:08.656Z,48.00
2022-11-14T17:33:56.917Z,49.20
2022-11-14T17:36:42.489Z,51.00
2022-11-14T17:39:28.535Z,48.57
2022-11-14T17:42:14.185Z,49.20
2022-11-14T17:45:01.079Z,50.17
2022-11-14T17:47:46.691Z,50.17
2022-11-14T17:50:37.382Z,51.27
2022-11-14T17:53:23.466Z,52.73
2022-11-14T17:56:18.040Z,53.00
2022-11-14T17:59:03.562Z,53.03
2022-11-14T18:01:49.367Z,53.70
2022-11-14T18:04:35.207Z,53.50
2022-11-14T18:07:21.596Z,54.13
2022-11-14T18:10:07.510Z,53.17
2022-11-14T18:12:53.592Z,54.43
2022-11-14T18:15:39.339Z,53.83
2022-11-14T18:18:25.515Z,54.93
2022-11-14T18:21:23.151Z,57.63
2022-11-14T18:24:12.649Z,56.60
2022-11-14T18:26:59.221Z,57.40
2022-11-14T18:29:45.038Z,55.97
2022-11-14T18:32:30.706Z,58.67
2022-11-14T18:35:16.582Z,59.23
2022-11-14T18:38:02.248Z,61.13
2022-11-14T18:40:50.645Z,59.43
2022-11-14T18:43:38.684Z,60.83
2022-11-14T18:46:26.124Z,61.30
2022-11-14T18:49:11.507Z,59.43
2022-11-14T18:51:57.771Z,57.07
2022-11-14T18:54:42.908Z,58.10
2022-11-14T18:57:29.038Z,59.13
2022-11-14T19:00:15.363Z,60.97
2022-11-14T19:03:06.001Z,58.00
2022-11-14T19:05:52.072Z,60.33
2022-11-14T19:08:38.247Z,59.20
2022-11-14T19:11:42.341Z,57.60
2022-11-14T19:14:28.715Z,55.27
2022-11-14T19:17:14.450Z,56.63
2022-11-14T19:20:00.008Z,53.10
2022-11-14T19:22:45.699Z,54.77
2022-11-14T19:25:36.777Z,55.27
2022-11-14T19:28:27.106Z,54.30
2022-11-14T19:31:13.157Z,54.37
2022-11-14T19:33:59.638Z,55.23
2022-11-14T19:36:59.609Z,53.43
2022-11-14T19:39:45.877Z,50.03
2022-11-14T19:42:31.391Z,49.43
2022-11-14T19:45:16.872Z,50.77
2022-11-14T19:48:03.243Z,49.37
2022-11-14T19:50:48.344Z,50.43
2022-11-14T19:53:36.516Z,47.97
2022-11-14T19:56:23.507Z,49.33
2022-11-14T19:59:14.328Z,47.57
2022-11-14T20:02:01.281Z,51.17
2022-11-14T20:04:47.002Z,48.13
2022-11-14T20:07:33.171Z,47.83
2022-11-14T20:10:18.757Z,47.77
2022-11-14T20:13:04.359Z,48.93
2022-11-14T20:15:50.152Z,48.70
2022-11-14T20:18:35.432Z,48.83
2022-11-14T20:21:24.324Z,47.13
2022-11-14T20:24:14.404Z,50.27
2022-11-14T20:27:00.076Z,49.03
2022-11-14T20:29:45.759Z,49.37
2022-11-14T20:32:31.520Z,49.23
2022-11-14T20:35:16.947Z,46.90
2022-11-14T20:38:04.999Z,50.83
2022-11-14T20:40:55.392Z,48.90
2022-11-14T20:43:42.603Z,52.87
2022-11-14T20:46:28.135Z,47.93
2022-11-14T20:49:13.930Z,50.67
2022-11-14T20:51:59.558Z,48.60
2022-11-14T20:54:45.673Z,49.83
2022-11-14T20:57:31.235Z,48.20
2022-11-14T21:00:17.565Z,47.87
2022-11-14T21:03:03.235Z,48.43
2022-11-14T21:05:49.572Z,47.17
2022-11-14T21:08:36.334Z,43.90
2022-11-14T21:11:22.513Z,46.23
2022-11-14T21:14:11.605Z,48.70
2022-11-14T21:16:57.692Z,43.23
2022-11-14T21:19:43.484Z,41.27
2022-11-14T21:22:29.408Z,43.73
2022-11-14T21:25:14.890Z,44.53
2022-11-14T21:28:21.921Z,44.37
2022-11-14T21:31:14.944Z,45.43
2022-11-14T21:34:02.364Z,44.20
2022-11-14T21:36:48.525Z,45.17
2022-11-14T21:39:33.950Z,44.53
2022-11-14T21:42:19.517Z,44.53
2022-11-14T21:45:06.658Z,45.43
2022-11-14T21:47:52.554Z,41.70
2022-11-14T21:50:38.659Z,45.23
2022-11-14T21:53:24.114Z,44.33
2022-11-14T21:56:10.116Z,42.83
2022-11-14T21:59:12.768Z,45.60
2022-11-14T22:02:17.625Z,44.93
2022-11-14T22:05:03.221Z,43.20
2022-11-14T22:07:49.549Z,43.70
2022-11-14T22:10:34.976Z,41.80
2022-11-14T22:13:20.846Z,43.53
2022-11-14T22:16:08.019Z,42.43
2022-11-14T22:18:58.054Z,44.47
2022-11-14T22:21:46.088Z,43.73
2022-11-14T22:24:32.157Z,44.90
2022-11-14T22:27:17.780Z,45.43
2022-11-14T22:30:04.020Z,43.80
2022-11-14T22:32:49.387Z,42.90
2022-11-14T22:35:35.572Z,41.17
2022-11-14T22:38:21.320Z,43.77
2022-11-14T22:41:11.821Z,43.03
2022-11-14T22:43:57.969Z,42.40
2022-11-14T22:46:43.626Z,43.90
2022-11-14T22:49:29.341Z,42.33
2022-11-14T22:52:15.039Z,44.47
2022-11-14T22:55:00.577Z,43.00
2022-11-14T22:57:46.086Z,45.93
2022-11-14T23:00:31.819Z,46.03
2022-11-14T23:03:20.572Z,44.23
2022-11-14T23:06:13.823Z,45.37
2022-11-14T23:09:01.356Z,46.23
2022-11-14T23:11:47.153Z,47.80
2022-11-14T23:14:32.967Z,47.43
2022-11-14T23:17:18.499Z,46.17
2022-11-14T23:20:04.843Z,45.67
2022-11-14T23:22:50.314Z,47.17
2022-11-14T23:25:37.803Z,48.10
2022-11-14T23:28:23.705Z,49.33
2022-11-14T23:31:11.711Z,47.73
2022-11-14T23:33:58.233Z,50.50
2022-11-14T23:36:44.184Z,51.40
2022-11-14T23:39:29.820Z,49.50
2022-11-14T23:42:15.532Z,49.80
2022-11-14T23:45:01.051Z,48.63
2022-11-14T23:47:46.487Z,50.47
2022-11-14T23:50:31.952Z,53.30
2022-11-14T23:53:18.488Z,51.27
2022-11-14T23:56:04.522Z,49.00
2022-11-14T23:58:50.167Z,55.07
